sensor_id;sensor_type;location;lat;lon;timestamp;temperature;humidity
47921;DHT22;33686;48.770;9.186;2023-01-28T06:15:14;0.50;99.90
47921;DHT22;33686;48.770;9.186;2023-01-28T06:18:09;0.50;99.90
47921;DHT22;33686;48.770;9.186;2023-01-28T06:20:35;0.50;99.90
47921;DHT22;33686;48.770;9.186;2023-01-28T06:23:00;0.60;99.90
47921;DHT22;33686;48.770;9.186;2023-01-28T06:25:26;0.50;99.90
47921;DHT22;33686;48.770;9.186;2023-01-28T06:27:52;0.60;99.90
47921;DHT22;33686;48.770;9.186;2023-01-28T06:30:18;0.60;99.90
47921;DHT22;33686;48.770;9.186;2023-01-28T06:32:44;0.60;99.90
47921;DHT22;33686;48.770;9.186;2023-01-28T06:35:10;0.60;99.90
47921;DHT22;33686;48.770;9.186;2023-01-28T06:37:36;0.60;99.90
47921;DHT22;33686;48.770;9.186;2023-01-28T06:40:02;0.60;99.90
47921;DHT22;33686;48.770;9.186;2023-01-28T06:42:28;0.60;99.90
47921;DHT22;33686;48.770;9.186;2023-01-28T06:44:53;0.60;99.90
47921;DHT22;33686;48.770;9.186;2023-01-28T06:47:19;0.60;99.90
47921;DHT22;33686;48.770;9.186;2023-01-28T06:49:44;0.60;99.90
47921;DHT22;33686;48.770;9.186;2023-01-28T06:52:10;0.60;99.90
47921;DHT22;33686;48.770;9.186;2023-01-28T06:54:35;0.60;99.90
47921;DHT22;33686;48.770;9.186;2023-01-28T06:57:01;0.60;99.90
47921;DHT22;33686;48.770;9.186;2023-01-28T06:59:27;0.70;99.90
47921;DHT22;33686;48.770;9.186;2023-01-28T07:01:52;0.60;99.90
47921;DHT22;33686;48.770;9.186;2023-01-28T07:04:18;0.70;99.90
47921;DHT22;33686;48.770;9.186;2023-01-28T07:06:43;0.60;99.90
47921;DHT22;33686;48.770;9.186;2023-01-28T07:09:09;0.60;99.90
47921;DHT22;33686;48.770;9.186;2023-01-28T07:11:34;0.60;99.90
47921;DHT22;33686;48.770;9.186;2023-01-28T07:14:00;0.60;99.90
47921;DHT22;33686;48.770;9.186;2023-01-28T07:16:26;0.70;99.90
47921;DHT22;33686;48.770;9.186;2023-01-28T07:18:51;0.70;99.90
47921;DHT22;33686;48.770;9.186;2023-01-28T07:21:17;0.70;99.90
47921;DHT22;33686;48.770;9.186;2023-01-28T07:23:42;0.70;99.90
47921;DHT22;33686;48.770;9.186;2023-01-28T07:26:08;0.70;99.90
47921;DHT22;33686;48.770;9.186;2023-01-28T07:28:33;0.70;99.90
47921;DHT22;33686;48.770;9.186;2023-01-28T07:30:59;0.70;99.90
47921;DHT22;33686;48.770;9.186;2023-01-28T07:33:24;0.60;99.90
47921;DHT22;33686;48.770;9.186;2023-01-28T07:35:50;0.60;99.90
47921;DHT22;33686;48.770;9.186;2023-01-28T07:38:15;0.60;99.90
47921;DHT22;33686;48.770;9.186;2023-01-28T07:40:41;0.70;99.90
47921;DHT22;33686;48.770;9.186;2023-01-28T07:43:07;0.70;99.90
47921;DHT22;33686;48.770;9.186;2023-01-28T07:45:38;0.80;99.90
47921;DHT22;33686;48.770;9.186;2023-01-28T07:48:04;0.80;99.90
47921;DHT22;33686;48.770;9.186;2023-01-28T07:50:30;0.80;99.90
47921;DHT22;33686;48.770;9.186;2023-01-28T07:52:57;0.80;99.90
47921;DHT22;33686;48.770;9.186;2023-01-28T07:55:22;0.80;99.90
47921;DHT22;33686;48.770;9.186;2023-01-28T08:00:15;0.80;99.90
47921;DHT22;33686;48.770;9.186;2023-01-28T08:02:40;0.70;99.90
47921;DHT22;33686;48.770;9.186;2023-01-28T08:05:09;0.80;99.90
47921;DHT22;33686;48.770;9.186;2023-01-28T08:07:34;0.90;99.90
47921;DHT22;33686;48.770;9.186;2023-01-28T08:10:00;0.90;99.90
47921;DHT22;33686;48.770;9.186;2023-01-28T08:12:25;1.00;99.90
47921;DHT22;33686;48.770;9.186;2023-01-28T08:14:51;0.90;99.90
47921;DHT22;33686;48.770;9.186;2023-01-28T08:17:16;1.00;99.90
47921;DHT22;33686;48.770;9.186;2023-01-28T08:19:42;1.00;99.90
47921;DHT22;33686;48.770;9.186;2023-01-28T08:22:07;0.90;99.90
47921;DHT22;33686;48.770;9.186;2023-01-28T08:24:33;1.00;99.90
47921;DHT22;33686;48.770;9.186;2023-01-28T08:26:58;1.00;99.90
47921;DHT22;33686;48.770;9.186;2023-01-28T08:29:24;1.10;99.90
47921;DHT22;33686;48.770;9.186;2023-01-28T08:31:50;1.00;99.90
47921;DHT22;33686;48.770;9.186;2023-01-28T08:34:15;1.00;99.90
47921;DHT22;33686;48.770;9.186;2023-01-28T08:36:41;1.00;99.90
47921;DHT22;33686;48.770;9.186;2023-01-28T08:39:06;1.10;99.90
47921;DHT22;33686;48.770;9.186;2023-01-28T08:41:32;1.10;99.90
47921;DHT22;33686;48.770;9.186;2023-01-28T08:43:57;1.20;99.90
47921;DHT22;33686;48.770;9.186;2023-01-28T08:46:24;1.30;99.90
47921;DHT22;33686;48.770;9.186;2023-01-28T08:48:50;1.30;99.90
47921;DHT22;33686;48.770;9.186;2023-01-28T08:51:15;1.30;99.90
47921;DHT22;33686;48.770;9.186;2023-01-28T08:53:41;1.30;99.90
47921;DHT22;33686;48.770;9.186;2023-01-28T08:56:06;1.40;99.90
47921;DHT22;33686;48.770;9.186;2023-01-28T08:58:32;1.40;99.90
47921;DHT22;33686;48.770;9.186;2023-01-28T09:00:57;1.40;99.90
47921;DHT22;33686;48.770;9.186;2023-01-28T09:03:28;1.40;99.90
47921;DHT22;33686;48.770;9.186;2023-01-28T09:05:58;1.40;99.90
47921;DHT22;33686;48.770;9.186;2023-01-28T09:08:23;1.40;99.90
47921;DHT22;33686;48.770;9.186;2023-01-28T09:10:53;1.40;99.90
47921;DHT22;33686;48.770;9.186;2023-01-28T09:13:18;1.50;99.90
47921;DHT22;33686;48.770;9.186;2023-01-28T09:15:44;1.60;99.90
47921;DHT22;33686;48.770;9.186;2023-01-28T09:18:09;1.50;99.90
47921;DHT22;33686;48.770;9.186;2023-01-28T09:20:35;1.50;99.90
47921;DHT22;33686;48.770;9.186;2023-01-28T09:23:01;1.60;99.90
47921;DHT22;33686;48.770;9.186;2023-01-28T09:25:27;1.70;99.90
47921;DHT22;33686;48.770;9.186;2023-01-28T09:27:52;1.70;99.90
47921;DHT22;33686;48.770;9.186;2023-01-28T09:30:18;1.80;99.90
47921;DHT22;33686;48.770;9.186;2023-01-28T09:32:44;1.80;99.90
47921;DHT22;33686;48.770;9.186;2023-01-28T09:35:09;1.70;99.90
47921;DHT22;33686;48.770;9.186;2023-01-28T09:37:36;1.80;99.90
47921;DHT22;33686;48.770;9.186;2023-01-28T09:40:02;1.70;99.90
47921;DHT22;33686;48.770;9.186;2023-01-28T09:47:41;1.60;99.90
47921;DHT22;33686;48.770;9.186;2023-01-28T09:50:10;1.60;99.90
47921;DHT22;33686;48.770;9.186;2023-01-28T09:52:37;1.50;99.90
47921;DHT22;33686;48.770;9.186;2023-01-28T09:55:12;1.60;99.90
47921;DHT22;33686;48.770;9.186;2023-01-28T09:57:44;1.70;99.90
47921;DHT22;33686;48.770;9.186;2023-01-28T10:00:12;1.70;99.90
47921;DHT22;33686;48.770;9.186;2023-01-28T10:05:23;1.60;99.90
47921;DHT22;33686;48.770;9.186;2023-01-28T10:08:04;1.60;99.90
47921;DHT22;33686;48.770;9.186;2023-01-28T10:13:58;1.70;99.90
47921;DHT22;33686;48.770;9.186;2023-01-28T10:18:57;1.70;99.90
47921;DHT22;33686;48.770;9.186;2023-01-28T10:26:49;1.60;99.90
47921;DHT22;33686;48.770;9.186;2023-01-28T10:29:18;1.70;99.90
47921;DHT22;33686;48.770;9.186;2023-01-28T10:31:53;1.70;99.90
47921;DHT22;33686;48.770;9.186;2023-01-28T10:34:20;1.60;99.90
47921;DHT22;33686;48.770;9.186;2023-01-28T10:36:46;1.60;99.90
47921;DHT22;33686;48.770;9.186;2023-01-28T10:39:16;1.60;99.90
47921;DHT22;33686;48.770;9.186;2023-01-28T10:41:42;1.60;99.90
47921;DHT22;33686;48.770;9.186;2023-01-28T10:44:50;1.60;99.90
47921;DHT22;33686;48.770;9.186;2023-01-28T10:46:58;1.70;99.90
47921;DHT22;33686;48.770;9.186;2023-01-28T10:49:26;1.90;99.90
47921;DHT22;33686;48.770;9.186;2023-01-28T10:51:52;1.90;99.90
47921;DHT22;33686;48.770;9.186;2023-01-28T10:56:43;1.90;99.90
47921;DHT22;33686;48.770;9.186;2023-01-28T10:59:19;1.80;99.90
47921;DHT22;33686;48.770;9.186;2023-01-28T11:01:49;1.80;99.90
47921;DHT22;33686;48.770;9.186;2023-01-28T11:09:27;1.80;99.90
47921;DHT22;33686;48.770;9.186;2023-01-28T11:11:53;1.80;99.90
47921;DHT22;33686;48.770;9.186;2023-01-28T11:14:22;2.00;99.90
47921;DHT22;33686;48.770;9.186;2023-01-28T11:16:48;1.90;99.90
47921;DHT22;33686;48.770;9.186;2023-01-28T11:19:14;1.90;99.90
47921;DHT22;33686;48.770;9.186;2023-01-28T11:21:46;1.80;99.90
47921;DHT22;33686;48.770;9.186;2023-01-28T11:24:14;1.80;99.90
47921;DHT22;33686;48.770;9.186;2023-01-28T11:26:43;1.80;99.90
47921;DHT22;33686;48.770;9.186;2023-01-28T11:29:20;1.90;99.90
47921;DHT22;33686;48.770;9.186;2023-01-28T11:31:46;1.90;99.90
47921;DHT22;33686;48.770;9.186;2023-01-28T11:34:15;2.00;99.90
47921;DHT22;33686;48.770;9.186;2023-01-28T11:36:48;2.10;99.90
47921;DHT22;33686;48.770;9.186;2023-01-28T11:39:16;2.00;99.90
47921;DHT22;33686;48.770;9.186;2023-01-28T11:41:42;2.00;99.90
47921;DHT22;33686;48.770;9.186;2023-01-28T11:44:15;2.00;99.90
47921;DHT22;33686;48.770;9.186;2023-01-28T11:51:41;1.90;99.90
47921;DHT22;33686;48.770;9.186;2023-01-28T11:54:30;1.90;99.90
47921;DHT22;33686;48.770;9.186;2023-01-28T11:57:20;1.90;99.90
47921;DHT22;33686;48.770;9.186;2023-01-28T12:02:37;1.90;99.90
47921;DHT22;33686;48.770;9.186;2023-01-28T12:07:55;1.90;99.90
47921;DHT22;33686;48.770;9.186;2023-01-28T12:15:34;1.80;99.90
47921;DHT22;33686;48.770;9.186;2023-01-28T12:18:22;1.90;99.90
47921;DHT22;33686;48.770;9.186;2023-01-28T12:21:05;1.80;99.90
47921;DHT22;33686;48.770;9.186;2023-01-28T12:23:35;1.90;99.90
47921;DHT22;33686;48.770;9.186;2023-01-28T12:28:31;1.80;99.90
47921;DHT22;33686;48.770;9.186;2023-01-28T12:35:59;1.80;99.90
47921;DHT22;33686;48.770;9.186;2023-01-28T12:38:39;1.80;99.90
47921;DHT22;33686;48.770;9.186;2023-01-28T12:41:20;1.70;99.90
47921;DHT22;33686;48.770;9.186;2023-01-28T12:44:04;1.70;99.90
47921;DHT22;33686;48.770;9.186;2023-01-28T12:46:47;1.70;99.90
47921;DHT22;33686;48.770;9.186;2023-01-28T12:49:18;1.70;99.90
47921;DHT22;33686;48.770;9.186;2023-01-28T12:51:48;1.70;99.90
47921;DHT22;33686;48.770;9.186;2023-01-28T12:54:17;1.70;99.90
47921;DHT22;33686;48.770;9.186;2023-01-28T12:56:51;1.70;99.90
47921;DHT22;33686;48.770;9.186;2023-01-28T12:59:27;1.70;99.90
47921;DHT22;33686;48.770;9.186;2023-01-28T13:04:36;1.90;99.90
47921;DHT22;33686;48.770;9.186;2023-01-28T13:07:08;1.90;99.90
47921;DHT22;33686;48.770;9.186;2023-01-28T13:09:35;1.90;99.90
47921;DHT22;33686;48.770;9.186;2023-01-28T13:12:03;1.90;99.90
47921;DHT22;33686;48.770;9.186;2023-01-28T13:14:30;1.80;99.90
47921;DHT22;33686;48.770;9.186;2023-01-28T13:17:07;1.80;99.90
47921;DHT22;33686;48.770;9.186;2023-01-28T13:19:38;1.80;99.90
47921;DHT22;33686;48.770;9.186;2023-01-28T13:22:11;1.70;99.90
47921;DHT22;33686;48.770;9.186;2023-01-28T13:24:37;1.70;99.90
47921;DHT22;33686;48.770;9.186;2023-01-28T13:27:10;1.70;99.90
47921;DHT22;33686;48.770;9.186;2023-01-28T13:29:36;1.70;99.90
47921;DHT22;33686;48.770;9.186;2023-01-28T13:32:03;1.70;99.90
47921;DHT22;33686;48.770;9.186;2023-01-28T13:34:55;1.60;99.90
47921;DHT22;33686;48.770;9.186;2023-01-28T13:37:27;1.60;99.90
47921;DHT22;33686;48.770;9.186;2023-01-28T13:40:05;1.60;99.90
47921;DHT22;33686;48.770;9.186;2023-01-28T13:42:33;1.70;99.90
47921;DHT22;33686;48.770;9.186;2023-01-28T13:47:42;1.70;99.90
47921;DHT22;33686;48.770;9.186;2023-01-28T13:50:11;1.60;99.90
47921;DHT22;33686;48.770;9.186;2023-01-28T13:55:18;1.70;99.90
47921;DHT22;33686;48.770;9.186;2023-01-28T14:16:01;1.60;99.90
47921;DHT22;33686;48.770;9.186;2023-01-28T14:18:30;1.60;99.90
47921;DHT22;33686;48.770;9.186;2023-01-28T14:20:58;1.60;99.90
47921;DHT22;33686;48.770;9.186;2023-01-28T14:23:25;1.70;99.90
47921;DHT22;33686;48.770;9.186;2023-01-28T14:25:56;1.60;99.90
47921;DHT22;33686;48.770;9.186;2023-01-28T14:28:28;1.60;99.90
47921;DHT22;33686;48.770;9.186;2023-01-28T14:31:07;1.60;99.90
47921;DHT22;33686;48.770;9.186;2023-01-28T14:33:33;1.50;99.90
47921;DHT22;33686;48.770;9.186;2023-01-28T14:36:00;1.60;99.90
47921;DHT22;33686;48.770;9.186;2023-01-28T14:38:25;1.60;99.90
47921;DHT22;33686;48.770;9.186;2023-01-28T14:40:51;1.60;99.90
47921;DHT22;33686;48.770;9.186;2023-01-28T14:43:18;1.70;99.90
47921;DHT22;33686;48.770;9.186;2023-01-28T14:45:51;1.70;99.90
47921;DHT22;33686;48.770;9.186;2023-01-28T14:50:51;1.70;99.90
47921;DHT22;33686;48.770;9.186;2023-01-28T14:53:30;1.60;99.90
47921;DHT22;33686;48.770;9.186;2023-01-28T14:58:45;1.70;99.90
47921;DHT22;33686;48.770;9.186;2023-01-28T15:01:33;1.60;99.90
47921;DHT22;33686;48.770;9.186;2023-01-28T15:03:58;1.60;99.90
47921;DHT22;33686;48.770;9.186;2023-01-28T15:06:24;1.60;99.90
47921;DHT22;33686;48.770;9.186;2023-01-28T15:08:50;1.60;99.90
47921;DHT22;33686;48.770;9.186;2023-01-28T15:11:17;1.60;99.90
47921;DHT22;33686;48.770;9.186;2023-01-28T15:13:47;1.70;99.90
47921;DHT22;33686;48.770;9.186;2023-01-28T15:16:21;1.60;99.90
47921;DHT22;33686;48.770;9.186;2023-01-28T15:18:47;1.70;99.90
47921;DHT22;33686;48.770;9.186;2023-01-28T15:21:12;1.70;99.90
47921;DHT22;33686;48.770;9.186;2023-01-28T15:23:40;1.60;99.90
47921;DHT22;33686;48.770;9.186;2023-01-28T15:26:07;1.70;99.90
47921;DHT22;33686;48.770;9.186;2023-01-28T15:28:35;1.60;99.90
47921;DHT22;33686;48.770;9.186;2023-01-28T15:31:01;1.60;99.90
47921;DHT22;33686;48.770;9.186;2023-01-28T15:33:27;1.60;99.90
47921;DHT22;33686;48.770;9.186;2023-01-28T15:35:53;1.50;99.90
47921;DHT22;33686;48.770;9.186;2023-01-28T15:38:19;1.50;99.90
47921;DHT22;33686;48.770;9.186;2023-01-28T15:40:47;1.50;99.90
47921;DHT22;33686;48.770;9.186;2023-01-28T15:43:17;1.50;99.90
47921;DHT22;33686;48.770;9.186;2023-01-28T15:45:43;1.60;99.90
47921;DHT22;33686;48.770;9.186;2023-01-28T15:48:10;1.60;99.90
47921;DHT22;33686;48.770;9.186;2023-01-28T15:50:36;1.60;99.90
47921;DHT22;33686;48.770;9.186;2023-01-28T15:53:06;1.60;99.90
47921;DHT22;33686;48.770;9.186;2023-01-28T15:55:39;1.50;99.90
47921;DHT22;33686;48.770;9.186;2023-01-28T15:58:47;1.50;99.90
47921;DHT22;33686;48.770;9.186;2023-01-28T16:01:11;1.60;99.90
47921;DHT22;33686;48.770;9.186;2023-01-28T16:03:37;1.60;99.90
47921;DHT22;33686;48.770;9.186;2023-01-28T16:06:04;1.50;99.90
47921;DHT22;33686;48.770;9.186;2023-01-28T16:08:41;1.50;99.90
47921;DHT22;33686;48.770;9.186;2023-01-28T16:11:09;1.50;99.90
47921;DHT22;33686;48.770;9.186;2023-01-28T16:13:39;1.50;99.90
47921;DHT22;33686;48.770;9.186;2023-01-28T16:16:05;1.50;99.90
47921;DHT22;33686;48.770;9.186;2023-01-28T16:18:48;1.50;99.90
47921;DHT22;33686;48.770;9.186;2023-01-28T16:21:24;1.50;99.90
47921;DHT22;33686;48.770;9.186;2023-01-28T16:23:52;1.50;99.90
47921;DHT22;33686;48.770;9.186;2023-01-28T16:26:22;1.50;99.90
47921;DHT22;33686;48.770;9.186;2023-01-28T16:28:49;1.40;99.90
47921;DHT22;33686;48.770;9.186;2023-01-28T16:31:14;1.50;99.90
47921;DHT22;33686;48.770;9.186;2023-01-28T16:33:40;1.50;99.90
47921;DHT22;33686;48.770;9.186;2023-01-28T16:36:08;1.50;99.90
47921;DHT22;33686;48.770;9.186;2023-01-28T16:38:34;1.50;99.90
47921;DHT22;33686;48.770;9.186;2023-01-28T16:40:59;1.50;99.90
47921;DHT22;33686;48.770;9.186;2023-01-28T16:43:25;1.50;99.90
47921;DHT22;33686;48.770;9.186;2023-01-28T16:45:50;1.40;99.90
47921;DHT22;33686;48.770;9.186;2023-01-28T16:48:16;1.40;99.90
47921;DHT22;33686;48.770;9.186;2023-01-28T16:50:42;1.40;99.90
47921;DHT22;33686;48.770;9.186;2023-01-28T16:53:21;1.40;99.90
47921;DHT22;33686;48.770;9.186;2023-01-28T16:55:50;1.40;99.90
47921;DHT22;33686;48.770;9.186;2023-01-28T16:58:17;1.40;99.90
47921;DHT22;33686;48.770;9.186;2023-01-28T17:00:43;1.30;99.90
47921;DHT22;33686;48.770;9.186;2023-01-28T17:03:08;1.30;99.90
47921;DHT22;33686;48.770;9.186;2023-01-28T17:05:36;1.40;99.90
47921;DHT22;33686;48.770;9.186;2023-01-28T17:08:02;1.30;99.90
47921;DHT22;33686;48.770;9.186;2023-01-28T17:10:27;1.30;99.90
47921;DHT22;33686;48.770;9.186;2023-01-28T17:12:53;1.30;99.90
47921;DHT22;33686;48.770;9.186;2023-01-28T17:15:18;1.30;99.90
47921;DHT22;33686;48.770;9.186;2023-01-28T17:17:46;1.30;99.90
47921;DHT22;33686;48.770;9.186;2023-01-28T17:20:11;1.30;99.90
47921;DHT22;33686;48.770;9.186;2023-01-28T17:22:37;1.30;99.90
47921;DHT22;33686;48.770;9.186;2023-01-28T17:25:02;1.40;99.90
47921;DHT22;33686;48.770;9.186;2023-01-28T17:27:28;1.30;99.90
47921;DHT22;33686;48.770;9.186;2023-01-28T17:29:54;1.30;99.90
47921;DHT22;33686;48.770;9.186;2023-01-28T17:32:19;1.30;99.90
47921;DHT22;33686;48.770;9.186;2023-01-28T17:34:46;1.40;99.90
47921;DHT22;33686;48.770;9.186;2023-01-28T17:37:11;1.40;99.90
47921;DHT22;33686;48.770;9.186;2023-01-28T17:39:37;1.40;99.90
47921;DHT22;33686;48.770;9.186;2023-01-28T17:42:02;1.30;99.90
47921;DHT22;33686;48.770;9.186;2023-01-28T17:44:28;1.30;99.90
47921;DHT22;33686;48.770;9.186;2023-01-28T17:46:53;1.30;99.90
47921;DHT22;33686;48.770;9.186;2023-01-28T17:49:19;1.30;99.90
47921;DHT22;33686;48.770;9.186;2023-01-28T17:51:44;1.30;99.90
47921;DHT22;33686;48.770;9.186;2023-01-28T17:54:10;1.20;99.90
47921;DHT22;33686;48.770;9.186;2023-01-28T17:56:36;1.20;99.90
47921;DHT22;33686;48.770;9.186;2023-01-28T17:59:03;1.30;99.90
47921;DHT22;33686;48.770;9.186;2023-01-28T18:01:31;1.30;99.90
47921;DHT22;33686;48.770;9.186;2023-01-28T18:03:57;1.30;99.90
47921;DHT22;33686;48.770;9.186;2023-01-28T18:06:23;1.20;99.90
47921;DHT22;33686;48.770;9.186;2023-01-28T18:08:49;1.20;99.90
47921;DHT22;33686;48.770;9.186;2023-01-28T18:11:17;1.20;99.90
47921;DHT22;33686;48.770;9.186;2023-01-28T18:13:43;1.20;99.90
47921;DHT22;33686;48.770;9.186;2023-01-28T18:16:10;1.30;99.90
47921;DHT22;33686;48.770;9.186;2023-01-28T18:18:36;1.20;99.90
47921;DHT22;33686;48.770;9.186;2023-01-28T18:21:03;1.20;99.90
47921;DHT22;33686;48.770;9.186;2023-01-28T18:23:29;1.20;99.90
47921;DHT22;33686;48.770;9.186;2023-01-28T18:25:55;1.20;99.90
47921;DHT22;33686;48.770;9.186;2023-01-28T18:28:24;1.20;99.90
47921;DHT22;33686;48.770;9.186;2023-01-28T18:30:54;1.20;99.90
47921;DHT22;33686;48.770;9.186;2023-01-28T18:33:20;1.20;99.90
47921;DHT22;33686;48.770;9.186;2023-01-28T18:35:46;1.20;99.90
47921;DHT22;33686;48.770;9.186;2023-01-28T18:38:13;1.20;99.90
47921;DHT22;33686;48.770;9.186;2023-01-28T18:40:45;1.20;99.90
47921;DHT22;33686;48.770;9.186;2023-01-28T18:43:11;1.10;99.90
47921;DHT22;33686;48.770;9.186;2023-01-28T18:45:37;1.10;99.90
47921;DHT22;33686;48.770;9.186;2023-01-28T18:48:03;1.20;99.90
47921;DHT22;33686;48.770;9.186;2023-01-28T18:50:29;1.20;99.90
47921;DHT22;33686;48.770;9.186;2023-01-28T18:52:54;1.20;99.90
47921;DHT22;33686;48.770;9.186;2023-01-28T18:55:20;1.20;99.90
47921;DHT22;33686;48.770;9.186;2023-01-28T18:57:46;1.20;99.90
47921;DHT22;33686;48.770;9.186;2023-01-28T19:00:12;1.20;99.90
47921;DHT22;33686;48.770;9.186;2023-01-28T19:02:38;1.20;99.90
47921;DHT22;33686;48.770;9.186;2023-01-28T19:05:04;1.20;99.90
47921;DHT22;33686;48.770;9.186;2023-01-28T19:07:30;1.20;99.90
47921;DHT22;33686;48.770;9.186;2023-01-28T19:09:55;1.20;99.90
47921;DHT22;33686;48.770;9.186;2023-01-28T19:12:21;1.20;99.90
47921;DHT22;33686;48.770;9.186;2023-01-28T19:14:47;1.20;99.90
47921;DHT22;33686;48.770;9.186;2023-01-28T19:17:12;1.30;99.90
47921;DHT22;33686;48.770;9.186;2023-01-28T19:19:38;1.10;99.90
47921;DHT22;33686;48.770;9.186;2023-01-28T19:22:04;1.20;99.90
47921;DHT22;33686;48.770;9.186;2023-01-28T19:24:29;1.20;99.90
47921;DHT22;33686;48.770;9.186;2023-01-28T19:26:55;1.20;99.90
47921;DHT22;33686;48.770;9.186;2023-01-28T19:29:21;1.10;99.90
47921;DHT22;33686;48.770;9.186;2023-01-28T19:31:47;1.10;99.90
47921;DHT22;33686;48.770;9.186;2023-01-28T19:34:13;1.00;99.90
47921;DHT22;33686;48.770;9.186;2023-01-28T19:36:40;1.10;99.90
47921;DHT22;33686;48.770;9.186;2023-01-28T19:39:07;1.00;99.90
47921;DHT22;33686;48.770;9.186;2023-01-28T19:41:33;1.10;99.90
47921;DHT22;33686;48.770;9.186;2023-01-28T19:43:59;1.10;99.90
47921;DHT22;33686;48.770;9.186;2023-01-28T19:46:25;1.10;99.90
47921;DHT22;33686;48.770;9.186;2023-01-28T19:48:50;1.10;99.90
47921;DHT22;33686;48.770;9.186;2023-01-28T19:51:17;1.10;99.90
47921;DHT22;33686;48.770;9.186;2023-01-28T19:53:43;1.10;99.90
47921;DHT22;33686;48.770;9.186;2023-01-28T19:56:10;1.00;99.90
47921;DHT22;33686;48.770;9.186;2023-01-28T19:58:37;1.10;99.90
47921;DHT22;33686;48.770;9.186;2023-01-28T20:01:06;1.00;99.90
47921;DHT22;33686;48.770;9.186;2023-01-28T20:03:31;1.00;99.90
47921;DHT22;33686;48.770;9.186;2023-01-28T20:05:58;1.00;99.90
47921;DHT22;33686;48.770;9.186;2023-01-28T20:08:23;1.00;99.90
47921;DHT22;33686;48.770;9.186;2023-01-28T20:10:49;1.00;99.90
47921;DHT22;33686;48.770;9.186;2023-01-28T20:13:14;1.10;99.90
47921;DHT22;33686;48.770;9.186;2023-01-28T20:15:40;1.00;99.90
47921;DHT22;33686;48.770;9.186;2023-01-28T20:18:05;1.00;99.90
47921;DHT22;33686;48.770;9.186;2023-01-28T20:20:31;0.90;99.90
47921;DHT22;33686;48.770;9.186;2023-01-28T20:22:56;0.90;99.90
47921;DHT22;33686;48.770;9.186;2023-01-28T20:25:22;0.80;99.90
47921;DHT22;33686;48.770;9.186;2023-01-28T20:27:48;0.80;99.90
47921;DHT22;33686;48.770;9.186;2023-01-28T20:30:13;0.80;99.90
47921;DHT22;33686;48.770;9.186;2023-01-28T20:32:39;0.80;99.90
47921;DHT22;33686;48.770;9.186;2023-01-28T20:35:04;0.80;99.90
47921;DHT22;33686;48.770;9.186;2023-01-28T20:37:30;0.70;99.90
47921;DHT22;33686;48.770;9.186;2023-01-28T20:39:55;0.70;99.90
47921;DHT22;33686;48.770;9.186;2023-01-28T20:42:21;0.70;99.90
47921;DHT22;33686;48.770;9.186;2023-01-28T20:44:46;0.80;99.90
47921;DHT22;33686;48.770;9.186;2023-01-28T20:47:12;0.70;99.90
47921;DHT22;33686;48.770;9.186;2023-01-28T20:49:37;0.70;99.90
47921;DHT22;33686;48.770;9.186;2023-01-28T20:52:03;0.70;99.90
47921;DHT22;33686;48.770;9.186;2023-01-28T20:54:29;0.70;99.90
47921;DHT22;33686;48.770;9.186;2023-01-28T20:56:55;0.80;99.90
47921;DHT22;33686;48.770;9.186;2023-01-28T20:59:21;0.80;99.90
47921;DHT22;33686;48.770;9.186;2023-01-28T21:01:48;0.70;99.90
47921;DHT22;33686;48.770;9.186;2023-01-28T21:04:14;0.70;99.90
47921;DHT22;33686;48.770;9.186;2023-01-28T21:06:41;0.70;99.90
47921;DHT22;33686;48.770;9.186;2023-01-28T21:09:07;0.70;99.90
47921;DHT22;33686;48.770;9.186;2023-01-28T21:11:32;0.70;99.90
47921;DHT22;33686;48.770;9.186;2023-01-28T21:13:58;0.70;99.90
47921;DHT22;33686;48.770;9.186;2023-01-28T21:16:24;0.70;99.90
47921;DHT22;33686;48.770;9.186;2023-01-28T21:18:49;0.70;99.90
47921;DHT22;33686;48.770;9.186;2023-01-28T21:21:18;0.80;99.90
47921;DHT22;33686;48.770;9.186;2023-01-28T21:23:44;0.70;99.90
47921;DHT22;33686;48.770;9.186;2023-01-28T21:26:10;0.60;99.90
47921;DHT22;33686;48.770;9.186;2023-01-28T21:28:36;0.60;99.90
47921;DHT22;33686;48.770;9.186;2023-01-28T21:31:16;0.70;99.90
47921;DHT22;33686;48.770;9.186;2023-01-28T21:33:42;0.70;99.90
47921;DHT22;33686;48.770;9.186;2023-01-28T21:36:11;0.60;99.90
47921;DHT22;33686;48.770;9.186;2023-01-28T21:38:38;0.60;99.90
47921;DHT22;33686;48.770;9.186;2023-01-28T21:41:04;0.60;99.90
47921;DHT22;33686;48.770;9.186;2023-01-28T21:43:29;0.50;99.90
47921;DHT22;33686;48.770;9.186;2023-01-28T21:45:55;0.50;99.90
47921;DHT22;33686;48.770;9.186;2023-01-28T21:48:21;0.50;99.90
47921;DHT22;33686;48.770;9.186;2023-01-28T21:50:47;0.50;99.90
47921;DHT22;33686;48.770;9.186;2023-01-28T21:53:34;0.40;99.90
47921;DHT22;33686;48.770;9.186;2023-01-28T21:55:59;0.50;99.90
47921;DHT22;33686;48.770;9.186;2023-01-28T21:58:25;0.50;99.90
47921;DHT22;33686;48.770;9.186;2023-01-28T22:01:09;0.50;99.90
47921;DHT22;33686;48.770;9.186;2023-01-28T22:03:34;0.40;99.90
47921;DHT22;33686;48.770;9.186;2023-01-28T22:06:00;0.40;99.90
47921;DHT22;33686;48.770;9.186;2023-01-28T22:08:25;0.40;99.90
47921;DHT22;33686;48.770;9.186;2023-01-28T22:10:51;0.40;99.90
47921;DHT22;33686;48.770;9.186;2023-01-28T22:13:18;0.40;99.90
47921;DHT22;33686;48.770;9.186;2023-01-28T22:15:44;0.40;99.90
47921;DHT22;33686;48.770;9.186;2023-01-28T22:18:10;0.40;99.90
47921;DHT22;33686;48.770;9.186;2023-01-28T22:20:35;0.30;99.90
47921;DHT22;33686;48.770;9.186;2023-01-28T22:23:01;0.30;99.90
47921;DHT22;33686;48.770;9.186;2023-01-28T22:25:26;0.30;99.90
47921;DHT22;33686;48.770;9.186;2023-01-28T22:27:52;0.40;99.90
47921;DHT22;33686;48.770;9.186;2023-01-28T22:30:17;0.40;99.90
47921;DHT22;33686;48.770;9.186;2023-01-28T22:32:43;0.40;99.90
47921;DHT22;33686;48.770;9.186;2023-01-28T22:35:08;0.40;99.90
47921;DHT22;33686;48.770;9.186;2023-01-28T22:37:34;0.40;99.90
47921;DHT22;33686;48.770;9.186;2023-01-28T22:39:59;0.40;99.90
47921;DHT22;33686;48.770;9.186;2023-01-28T22:42:25;0.40;99.90
47921;DHT22;33686;48.770;9.186;2023-01-28T22:44:50;0.30;99.90
47921;DHT22;33686;48.770;9.186;2023-01-28T22:47:16;0.30;99.90
47921;DHT22;33686;48.770;9.186;2023-01-28T22:49:42;0.30;99.90
47921;DHT22;33686;48.770;9.186;2023-01-28T22:52:07;0.30;99.90
47921;DHT22;33686;48.770;9.186;2023-01-28T22:54:33;0.40;99.90
47921;DHT22;33686;48.770;9.186;2023-01-28T22:56:58;0.30;99.90
47921;DHT22;33686;48.770;9.186;2023-01-28T22:59:24;0.30;99.90
